Holmen, WI

4:36 PM CDT on August 26, 2016 (GMT -0500)
Holmen | | Change Station

Elev 705 ft 43.96 °N, 91.26 °W | Updated 4 seconds ago

Mostly Cloudy
Mostly Cloudy
76.7 °F
Feels Like 79 °F
N
1.8
Wind Variable Wind from WSW
Gusts 1.8 mph

Today
High -- | Low -- °F
--% Chance of Precip.
Yesterday
High -- | Low -- °F
Precip. -- in
Pressure 30.13 in
Visibility 10.0 miles
Clouds Mostly Cloudy 3700 ft
Mostly Cloudy 4500 ft
Heat Index 79 °F
Dew Point 62 °F
Humidity 60%
Rainfall 0.00 in
Snow Depth Not available.
6:22 AM 7:50 PM
Waning Crescent, 31% visible
METAR KLSE 262053Z 22004KT 10SM BKN037 BKN045 23/14 A3014 RMK AO2 SLP202 T02280144 57006
Pressure 30.13 in
Visibility 10.0 miles
Clouds Mostly Cloudy 3700 ft
Mostly Cloudy 4500 ft
Heat Index 79 °F
Dew Point 62 °F
Humidity 60%
Rainfall 0.00 in
Snow Depth Not available.
6:22 AM 7:50 PM
Waning Crescent, 31% visible
METAR KLSE 262053Z 22004KT 10SM BKN037 BKN045 23/14 A3014 RMK AO2 SLP202 T02280144 57006

10-Day Weather Forecast

Almanac

Astronomy

Aug. 26, 2016 Rise Set
Actual Time
Civil Twilight
Nautical Twilight
Astronomical Twilight
Moon
Length of Visible Light
Length of Day
Tomorrow will be .
, % of the Moon is Illuminated

Today's Extremes

State Highs State Lows

Community

WunderPhotos

Upload Photos

1,935,223 photos uploaded!

WunderBlog® & News

Nearby

Air Quality

  Air Quality AQ Index Pollutant
Not available.

Snow Depth

Station Depth Elevation

Earthquake Activity

City Distance Mag. Time & Date
Minimum magnitude displayed is 2.5.

Coastal Water Temperatures

Place Temperature

Stations

Nearby Weather Stations

Station Location Temp. Windchill Dew Point Humidity Wind Precip. Elev Updated Type
                   

Watches & Warnings

There are currently no watches in effect.